Time;durP1;ratioP1;P1;durP2;ratioP2;P2;SDS_P1;SDS_P2;PMS_P1;PMS_P2;Temp;Humidity;BMP_temperature;BMP_pressure;BME280_temperature;BME280_humidity;BME280_pressure;Samples;Min_cycle;Max_cycle;Signal;HPM_P1;HPM_P2
2022/11/08 00:03:50;;;;;;;0.00;0.00;;;;;;;;;;5110802;28;20048;-83
2022/11/08 00:14:30;;;;;;;0.00;0.00;;;;;;;;;;5094691;28;20048;-82
2022/11/08 00:16:56;;;;;;;0.00;0.00;;;;;;;;;;5076330;28;20058;-83
2022/11/08 00:19:22;;;;;;;0.00;0.00;;;;;;;;;;5076416;28;20078;-82
2022/11/08 00:21:48;;;;;;;0.00;0.00;;;;;;;;;;5076002;28;20044;-82
2022/11/08 00:24:14;;;;;;;0.00;0.00;;;;;;;;;;5076191;28;20047;-82
2022/11/08 00:26:40;;;;;;;0.00;0.00;;;;;;;;;;5076135;28;20043;-83
2022/11/08 00:29:05;;;;;;;0.47;0.25;;;;;;;;;;5075930;28;20073;-83
2022/11/08 00:31:31;;;;;;;0.00;0.00;;;;;;;;;;5093998;28;20434;-83
2022/11/08 00:33:57;;;;;;;0.00;0.00;;;;;;;;;;5075971;28;20051;-83
2022/11/08 00:36:23;;;;;;;0.00;0.00;;;;;;;;;;5075777;28;20105;-82
2022/11/08 00:38:49;;;;;;;0.00;0.00;;;;;;;;;;5075711;28;20040;-82
2022/11/08 00:41:15;;;;;;;0.00;0.00;;;;;;;;;;5075551;28;20048;-82
2022/11/08 00:43:41;;;;;;;0.00;0.00;;;;;;;;;;5075837;28;20395;-82
2022/11/08 00:46:07;;;;;;;0.00;0.00;;;;;;;;;;5075767;28;20118;-83
2022/11/08 00:48:33;;;;;;;0.00;0.00;;;;;;;;;;5075829;28;20108;-83
2022/11/08 00:51:00;;;;;;;0.00;0.00;;;;;;;;;;5093860;28;20539;-82
2022/11/08 00:53:26;;;;;;;0.00;0.00;;;;;;;;;;5074905;28;20082;-82
2022/11/08 00:56:00;;;;;;;0.00;0.00;;;;;;;;;;5075398;28;20277;-83
2022/11/08 00:58:26;;;;;;;0.00;0.00;;;;;;;;;;5093563;28;20047;-83
2022/11/08 01:00:52;;;;;;;0.00;0.00;;;;;;;;;;5093335;28;20475;-82
2022/11/08 01:03:18;;;;;;;0.00;0.00;;;;;;;;;;5093662;28;20032;-83
2022/11/08 01:05:45;;;;;;;0.00;0.00;;;;;;;;;;5075543;28;20380;-83
2022/11/08 01:08:11;;;;;;;0.00;0.00;;;;;;;;;;5075230;28;20044;-82
2022/11/08 01:10:40;;;;;;;0.00;0.00;;;;;;;;;;5093349;28;20043;-82
2022/11/08 01:13:06;;;;;;;0.00;0.00;;;;;;;;;;5075129;28;20050;-82
2022/11/08 01:15:35;;;;;;;0.00;0.00;;;;;;;;;;5093386;28;20433;-82
2022/11/08 01:18:02;;;;;;;0.00;0.00;;;;;;;;;;5075158;28;20040;-83
2022/11/08 01:20:28;;;;;;;0.00;0.00;;;;;;;;;;5075478;28;20062;-82
2022/11/08 01:22:54;;;;;;;0.00;0.00;;;;;;;;;;5074946;28;20494;-81
2022/11/08 01:25:20;;;;;;;0.00;0.00;;;;;;;;;;5093456;28;20043;-82
2022/11/08 01:27:46;;;;;;;0.00;0.00;;;;;;;;;;5074991;28;20039;-82
2022/11/08 01:30:12;;;;;;;0.00;0.00;;;;;;;;;;5075067;28;20040;-83
2022/11/08 01:32:38;;;;;;;0.00;0.00;;;;;;;;;;5075044;28;20066;-82
2022/11/08 01:35:04;;;;;;;0.00;0.00;;;;;;;;;;5075291;28;20047;-83
2022/11/08 01:37:30;;;;;;;0.00;0.00;;;;;;;;;;5074667;28;20425;-83
2022/11/08 01:39:56;;;;;;;0.00;0.00;;;;;;;;;;5074941;28;20137;-82
2022/11/08 01:42:29;;;;;;;0.00;0.00;;;;;;;;;;5074871;28;20072;-82
2022/11/08 01:45:06;;;;;;;0.00;0.00;;;;;;;;;;5075167;28;20039;-83
2022/11/08 01:47:32;;;;;;;0.00;0.00;;;;;;;;;;5092722;28;20063;-83
2022/11/08 01:50:08;;;;;;;0.00;0.00;;;;;;;;;;5075033;28;20121;-83
2022/11/08 01:52:41;;;;;;;0.00;0.00;;;;;;;;;;5075114;28;20185;-83
2022/11/08 01:55:10;;;;;;;0.00;0.00;;;;;;;;;;5075030;28;20068;-82
2022/11/08 01:57:39;;;;;;;0.20;0.00;;;;;;;;;;5074623;28;20157;-83
2022/11/08 02:00:07;;;;;;;0.00;0.00;;;;;;;;;;5074770;28;20131;-82
2022/11/08 02:02:33;;;;;;;0.00;0.00;;;;;;;;;;5074490;28;20407;-83
2022/11/08 02:05:00;;;;;;;0.00;0.00;;;;;;;;;;5094886;28;20040;-83
2022/11/08 02:07:27;;;;;;;0.00;0.00;;;;;;;;;;5078788;28;20055;-83
2022/11/08 02:09:55;;;;;;;0.00;0.00;;;;;;;;;;5078681;28;20219;-82
2022/11/08 02:12:22;;;;;;;0.00;0.00;;;;;;;;;;5078570;28;20048;-82
2022/11/08 02:14:47;;;;;;;0.00;0.00;;;;;;;;;;5096859;28;20066;-83
2022/11/08 02:17:13;;;;;;;0.00;0.00;;;;;;;;;;5078276;28;20052;-82
2022/11/08 02:19:39;;;;;;;0.00;0.00;;;;;;;;;;5078477;28;20122;-82
2022/11/08 02:22:09;;;;;;;0.00;0.00;;;;;;;;;;5078316;28;20044;-82
2022/11/08 02:24:35;;;;;;;0.00;0.00;;;;;;;;;;5078842;28;20072;-82
2022/11/08 02:27:03;;;;;;;0.00;0.00;;;;;;;;;;5078466;28;20360;-82
2022/11/08 02:29:30;;;;;;;0.00;0.00;;;;;;;;;;5078217;28;20047;-82
2022/11/08 02:31:57;;;;;;;0.00;0.00;;;;;;;;;;5077993;28;20086;-83
2022/11/08 02:34:27;;;;;;;0.00;0.00;;;;;;;;;;5078651;28;20413;-82
2022/11/08 02:36:53;;;;;;;0.00;0.00;;;;;;;;;;5077829;28;20564;-82
2022/11/08 02:39:19;;;;;;;0.00;0.00;;;;;;;;;;5078046;28;20055;-83
2022/11/08 02:41:45;;;;;;;0.00;0.00;;;;;;;;;;5077854;28;20399;-83
2022/11/08 02:44:11;;;;;;;0.00;0.00;;;;;;;;;;5078383;28;20040;-82
2022/11/08 02:46:37;;;;;;;0.00;0.00;;;;;;;;;;5078033;28;20480;-82
2022/11/08 02:49:03;;;;;;;0.00;0.00;;;;;;;;;;5077909;28;20067;-82
2022/11/08 02:51:29;;;;;;;0.00;0.00;;;;;;;;;;5078000;28;20050;-83
2022/11/08 02:53:55;;;;;;;0.00;0.00;;;;;;;;;;5094633;28;20113;-83
2022/11/08 02:56:22;;;;;;;0.00;0.00;;;;;;;;;;5077834;28;20039;-83
2022/11/08 02:58:48;;;;;;;0.00;0.00;;;;;;;;;;5095726;28;20423;-83
2022/11/08 03:01:14;;;;;;;0.00;0.00;;;;;;;;;;5077657;28;20048;-83
2022/11/08 03:03:40;;;;;;;0.00;0.00;;;;;;;;;;5077846;28;20036;-82
2022/11/08 03:06:06;;;;;;;0.00;0.00;;;;;;;;;;5077884;28;20188;-82
2022/11/08 03:08:32;;;;;;;0.00;0.00;;;;;;;;;;5077303;28;20052;-82
2022/11/08 03:11:01;;;;;;;0.00;0.00;;;;;;;;;;5077467;28;20192;-83
2022/11/08 03:13:27;;;;;;;0.00;0.00;;;;;;;;;;5077565;28;20047;-83
2022/11/08 03:15:53;;;;;;;0.00;0.00;;;;;;;;;;5076812;28;20474;-82
2022/11/08 03:18:19;;;;;;;0.00;0.00;;;;;;;;;;5077118;28;20048;-82
2022/11/08 03:20:45;;;;;;;0.00;0.00;;;;;;;;;;5077424;28;20270;-83
2022/11/08 03:23:11;;;;;;;0.00;0.00;;;;;;;;;;5095233;28;20395;-82
2022/11/08 03:25:37;;;;;;;0.00;0.00;;;;;;;;;;5095620;28;20036;-83
2022/11/08 03:28:04;;;;;;;0.00;0.00;;;;;;;;;;5077259;28;20081;-82
2022/11/08 03:30:30;;;;;;;0.00;0.00;;;;;;;;;;5077059;28;20149;-82
2022/11/08 03:32:56;;;;;;;0.00;0.00;;;;;;;;;;5077200;28;20128;-82
2022/11/08 03:35:22;;;;;;;0.00;0.00;;;;;;;;;;5077371;28;20047;-83
2022/11/08 03:37:49;;;;;;;0.00;0.00;;;;;;;;;;5076752;28;20135;-82
2022/11/08 03:40:15;;;;;;;0.00;0.00;;;;;;;;;;5076919;28;20097;-82
2022/11/08 03:42:41;;;;;;;0.00;0.00;;;;;;;;;;5094826;28;20059;-82
2022/11/08 03:45:07;;;;;;;0.00;0.00;;;;;;;;;;5076877;28;20119;-83
2022/11/08 03:47:37;;;;;;;0.00;0.00;;;;;;;;;;5076641;28;20074;-83
2022/11/08 03:50:03;;;;;;;0.00;0.00;;;;;;;;;;5076755;28;20040;-83
2022/11/08 03:52:29;;;;;;;0.00;0.00;;;;;;;;;;5076576;28;20039;-83
2022/11/08 03:54:55;;;;;;;0.00;0.00;;;;;;;;;;5076788;28;20051;-83
2022/11/08 03:57:21;;;;;;;0.00;0.00;;;;;;;;;;5076893;28;20166;-82
2022/11/08 03:59:47;;;;;;;0.00;0.00;;;;;;;;;;5094684;28;20050;-82
2022/11/08 04:02:13;;;;;;;0.00;0.00;;;;;;;;;;5076670;28;20093;-83
2022/11/08 04:04:39;;;;;;;0.00;0.00;;;;;;;;;;5076309;28;20040;-82
2022/11/08 04:07:05;;;;;;;0.00;0.00;;;;;;;;;;5076651;28;20052;-83
2022/11/08 04:09:31;;;;;;;0.00;0.00;;;;;;;;;;5094582;28;20068;-83
2022/11/08 04:21:17;;;;;;;0.00;0.00;;;;;;;;;;5094595;28;20430;-83
2022/11/08 04:22:57;;;;;;;0.00;0.00;;;;;;;;;;5109850;28;20044;-82
2022/11/08 04:25:23;;;;;;;0.00;0.00;;;;;;;;;;5094305;28;20040;-83
2022/11/08 04:27:49;;;;;;;0.00;0.00;;;;;;;;;;5075072;28;20546;-82
2022/11/08 04:30:15;;;;;;;0.00;0.00;;;;;;;;;;5094248;28;20115;-82
2022/11/08 04:32:41;;;;;;;0.00;0.00;;;;;;;;;;5075974;28;20089;-82
2022/11/08 04:35:07;;;;;;;0.00;0.00;;;;;;;;;;5075773;28;20105;-82
2022/11/08 04:37:33;;;;;;;0.00;0.00;;;;;;;;;;5075833;28;20098;-82
2022/11/08 04:39:59;;;;;;;0.00;0.00;;;;;;;;;;5075508;28;20040;-82
2022/11/08 04:42:25;;;;;;;0.00;0.00;;;;;;;;;;5075867;28;20048;-82
2022/11/08 04:44:51;;;;;;;0.00;0.00;;;;;;;;;;5075528;28;20086;-82
2022/11/08 04:47:17;;;;;;;0.00;0.00;;;;;;;;;;5093923;28;20039;-82
2022/11/08 04:49:43;;;;;;;0.00;0.00;;;;;;;;;;5075365;28;20507;-83
2022/11/08 04:52:09;;;;;;;0.00;0.00;;;;;;;;;;5093724;28;20036;-83
2022/11/08 04:54:34;;;;;;;0.00;0.00;;;;;;;;;;5075356;28;20043;-83
2022/11/08 04:57:00;;;;;;;0.00;0.00;;;;;;;;;;5075634;28;20058;-82
2022/11/08 04:59:26;;;;;;;0.00;0.00;;;;;;;;;;5093439;28;20102;-82
2022/11/08 05:01:52;;;;;;;0.00;0.00;;;;;;;;;;5075589;28;20048;-82
2022/11/08 05:04:18;;;;;;;0.00;0.00;;;;;;;;;;5075291;28;20044;-83
2022/11/08 05:06:44;;;;;;;0.00;0.00;;;;;;;;;;5075504;28;20091;-82
2022/11/08 05:09:10;;;;;;;0.00;0.00;;;;;;;;;;5075026;28;20097;-82
2022/11/08 05:11:36;;;;;;;0.00;0.00;;;;;;;;;;5075638;28;20126;-82
2022/11/08 05:14:02;;;;;;;0.00;0.00;;;;;;;;;;5093526;28;20040;-82
2022/11/08 05:16:29;;;;;;;0.00;0.00;;;;;;;;;;5093665;28;20040;-83
2022/11/08 05:18:55;;;;;;;0.00;0.00;;;;;;;;;;5092033;28;20055;-82
2022/11/08 05:24:08;;;;;;;0.00;0.00;;;;;;;;;;5093058;28;20076;-83
2022/11/08 05:26:35;;;;;;;0.00;0.00;;;;;;;;;;5075430;28;20071;-82
2022/11/08 05:29:01;;;;;;;0.00;0.00;;;;;;;;;;5074828;28;20035;-83
2022/11/08 05:31:27;;;;;;;0.00;0.00;;;;;;;;;;5093270;28;20043;-83
2022/11/08 05:33:53;;;;;;;0.00;0.00;;;;;;;;;;5092851;28;20043;-83
2022/11/08 05:36:19;;;;;;;0.00;0.00;;;;;;;;;;5075088;28;20044;-83
2022/11/08 05:38:45;;;;;;;0.00;0.00;;;;;;;;;;5074421;28;20079;-82
2022/11/08 05:41:14;;;;;;;0.00;0.00;;;;;;;;;;5093131;28;20047;-82
2022/11/08 05:43:40;;;;;;;0.00;0.00;;;;;;;;;;5074984;28;20052;-82
2022/11/08 05:46:07;;;;;;;0.00;0.00;;;;;;;;;;5093066;28;20184;-83
2022/11/08 05:48:33;;;;;;;0.00;0.00;;;;;;;;;;5074896;28;20040;-83
2022/11/08 05:50:59;;;;;;;0.00;0.00;;;;;;;;;;5074779;28;20407;-82
2022/11/08 05:53:25;;;;;;;0.00;0.00;;;;;;;;;;5074976;28;20044;-82
2022/11/08 05:55:58;;;;;;;0.00;0.00;;;;;;;;;;5074607;28;20055;-82
2022/11/08 05:58:24;;;;;;;0.00;0.00;;;;;;;;;;5075054;28;20120;-82
2022/11/08 06:00:50;;;;;;;0.00;0.00;;;;;;;;;;5074880;28;20063;-82
2022/11/08 06:03:16;;;;;;;0.00;0.00;;;;;;;;;;5074637;28;20475;-83
2022/11/08 06:05:42;;;;;;;0.00;0.00;;;;;;;;;;5074808;28;20036;-83
2022/11/08 06:08:08;;;;;;;0.00;0.00;;;;;;;;;;5074953;28;20126;-83
2022/11/08 06:10:34;;;;;;;0.00;0.00;;;;;;;;;;5074436;28;20032;-83
2022/11/08 06:13:00;;;;;;;0.00;0.00;;;;;;;;;;5091843;28;20051;-83
2022/11/08 06:15:26;;;;;;;0.00;0.00;;;;;;;;;;5091247;28;20082;-83
2022/11/08 06:17:52;;;;;;;0.00;0.00;;;;;;;;;;5092876;28;20115;-83
2022/11/08 06:20:18;;;;;;;0.00;0.00;;;;;;;;;;5074356;28;20072;-83
2022/11/08 06:22:44;;;;;;;0.00;0.00;;;;;;;;;;5092567;28;20040;-82
2022/11/08 06:25:10;;;;;;;0.00;0.00;;;;;;;;;;5074318;28;20132;-83
2022/11/08 06:27:36;;;;;;;0.00;0.00;;;;;;;;;;5092567;28;20043;-83
2022/11/08 06:30:03;;;;;;;0.00;0.00;;;;;;;;;;5074157;28;20539;-83
2022/11/08 06:32:30;;;;;;;0.00;0.00;;;;;;;;;;5074630;28;20392;-82
2022/11/08 06:34:56;;;;;;;0.00;0.00;;;;;;;;;;5074424;28;20048;-82
2022/11/08 06:37:22;;;;;;;0.00;0.00;;;;;;;;;;5074249;28;20056;-82
2022/11/08 06:39:48;;;;;;;0.00;0.00;;;;;;;;;;5074137;28;20100;-82
2022/11/08 06:42:14;;;;;;;0.00;0.00;;;;;;;;;;5074319;28;20438;-83
2022/11/08 06:44:40;;;;;;;0.00;0.00;;;;;;;;;;5074332;28;20040;-82
2022/11/08 06:47:06;;;;;;;0.00;0.00;;;;;;;;;;5074604;28;20044;-82
2022/11/08 06:49:32;;;;;;;0.00;0.00;;;;;;;;;;5074005;28;20128;-82
2022/11/08 06:51:58;;;;;;;0.00;0.00;;;;;;;;;;5075861;28;20079;-82
2022/11/08 06:54:23;;;;;;;0.00;0.00;;;;;;;;;;5078000;28;20098;-82
2022/11/08 06:56:49;;;;;;;0.00;0.00;;;;;;;;;;5077827;28;20119;-83
2022/11/08 06:59:15;;;;;;;0.00;0.00;;;;;;;;;;5077760;28;20510;-82
2022/11/08 07:01:41;;;;;;;0.00;0.00;;;;;;;;;;5077889;28;20051;-82
2022/11/08 07:04:07;;;;;;;0.10;0.00;;;;;;;;;;5095868;28;20096;-82
2022/11/08 07:06:33;;;;;;;0.00;0.00;;;;;;;;;;5077622;28;20399;-82
2022/11/08 07:08:59;;;;;;;0.00;0.00;;;;;;;;;;5077907;28;20032;-84
2022/11/08 07:11:25;;;;;;;0.00;0.00;;;;;;;;;;5077506;28;20047;-83
2022/11/08 07:13:51;;;;;;;0.00;0.00;;;;;;;;;;5077587;28;20400;-83
2022/11/08 07:16:17;;;;;;;0.00;0.00;;;;;;;;;;5095515;28;20036;-84
2022/11/08 07:18:43;;;;;;;0.00;0.00;;;;;;;;;;5077266;28;20040;-84
2022/11/08 07:21:09;;;;;;;0.20;0.00;;;;;;;;;;5077215;28;20466;-83
2022/11/08 07:23:35;;;;;;;0.00;0.00;;;;;;;;;;5076070;28;20123;-83
2022/11/08 07:26:02;;;;;;;0.00;0.00;;;;;;;;;;5076788;28;20075;-83
2022/11/08 07:28:28;;;;;;;0.00;0.00;;;;;;;;;;5076724;28;20036;-84
2022/11/08 07:30:57;;;;;;;0.00;0.00;;;;;;;;;;5076620;28;20048;-84
2022/11/08 07:33:24;;;;;;;0.00;0.00;;;;;;;;;;5081641;28;20048;-83
2022/11/08 07:35:50;;;;;;;0.00;0.00;;;;;;;;;;5090314;28;20040;-85
2022/11/08 07:38:16;;;;;;;0.00;0.00;;;;;;;;;;5076624;28;20040;-83
2022/11/08 07:40:43;;;;;;;0.00;0.00;;;;;;;;;;5076500;28;20040;-84
2022/11/08 07:43:09;;;;;;;0.00;0.00;;;;;;;;;;5076481;28;20044;-83
2022/11/08 07:45:35;;;;;;;0.00;0.00;;;;;;;;;;5076448;28;20063;-82
2022/11/08 07:48:06;;;;;;;0.00;0.00;;;;;;;;;;5076320;28;20380;-83
2022/11/08 07:50:32;;;;;;;0.00;0.00;;;;;;;;;;5076589;28;20502;-82
2022/11/08 07:52:58;;;;;;;0.00;0.00;;;;;;;;;;5076510;28;20122;-83
2022/11/08 07:55:24;;;;;;;0.00;0.00;;;;;;;;;;5075938;28;20048;-82
2022/11/08 07:57:51;;;;;;;0.00;0.00;;;;;;;;;;5076856;28;20050;-82
2022/11/08 08:00:17;;;;;;;0.00;0.00;;;;;;;;;;5073388;28;20058;-84
2022/11/08 08:02:43;;;;;;;0.00;0.00;;;;;;;;;;5056035;28;20373;-83
2022/11/08 08:05:09;;;;;;;0.00;0.00;;;;;;;;;;5067719;28;20085;-83
2022/11/08 08:07:36;;;;;;;0.00;0.00;;;;;;;;;;5076164;28;20048;-83
2022/11/08 08:10:02;;;;;;;0.00;0.00;;;;;;;;;;5076102;28;20039;-82
2022/11/08 08:12:28;;;;;;;0.00;0.00;;;;;;;;;;5075916;28;20064;-83
2022/11/08 08:14:54;;;;;;;0.00;0.00;;;;;;;;;;5075946;28;20437;-82
2022/11/08 08:17:20;;;;;;;0.00;0.00;;;;;;;;;;5075922;28;20048;-83
2022/11/08 08:19:46;;;;;;;0.00;0.00;;;;;;;;;;5075825;28;20517;-83
2022/11/08 08:22:12;;;;;;;0.00;0.00;;;;;;;;;;5075605;28;20110;-83
2022/11/08 08:24:37;;;;;;;0.00;0.00;;;;;;;;;;5075973;28;20506;-86
2022/11/08 08:27:03;;;;;;;0.00;0.00;;;;;;;;;;5076223;28;20043;-83
2022/11/08 08:29:29;;;;;;;2.20;0.17;;;;;;;;;;5090140;28;20032;-83
2022/11/08 08:31:55;;;;;;;0.00;0.00;;;;;;;;;;5092680;28;20143;-84
2022/11/08 08:34:21;;;;;;;0.00;0.00;;;;;;;;;;5075956;28;20044;-84
2022/11/08 08:36:47;;;;;;;0.00;0.00;;;;;;;;;;5092618;28;20079;-85
2022/11/08 08:39:13;;;;;;;0.00;0.00;;;;;;;;;;5075868;28;20096;-84
2022/11/08 08:41:40;;;;;;;0.00;0.00;;;;;;;;;;5075596;28;20044;-84
2022/11/08 08:44:06;;;;;;;0.00;0.00;;;;;;;;;;5092742;28;20111;-84
2022/11/08 08:46:32;;;;;;;0.00;0.00;;;;;;;;;;5092394;28;20230;-84
2022/11/08 08:48:58;;;;;;;0.00;0.00;;;;;;;;;;5075690;28;20043;-83
2022/11/08 08:51:24;;;;;;;0.00;0.00;;;;;;;;;;5092458;28;20489;-84
2022/11/08 08:53:50;;;;;;;0.00;0.00;;;;;;;;;;5075718;28;20119;-84
2022/11/08 08:56:16;;;;;;;0.00;0.00;;;;;;;;;;5092280;28;20359;-84
2022/11/08 08:58:41;;;;;;;0.00;0.00;;;;;;;;;;5092471;28;20075;-84
2022/11/08 09:01:07;;;;;;;0.00;0.00;;;;;;;;;;5092353;28;20075;-84
2022/11/08 09:03:34;;;;;;;0.00;0.00;;;;;;;;;;5092271;28;20040;-84
2022/11/08 09:06:00;;;;;;;0.00;0.00;;;;;;;;;;5092112;28;20039;-85
2022/11/08 09:08:27;;;;;;;0.00;0.00;;;;;;;;;;5074795;28;20464;-85
2022/11/08 09:10:57;;;;;;;0.00;0.00;;;;;;;;;;5075203;28;20063;-85
2022/11/08 09:13:25;;;;;;;0.00;0.00;;;;;;;;;;5075357;28;20047;-84
2022/11/08 09:15:51;;;;;;;0.00;0.00;;;;;;;;;;5074601;28;20044;-83
2022/11/08 09:18:17;;;;;;;0.00;0.00;;;;;;;;;;5075241;28;20043;-83
2022/11/08 09:20:43;;;;;;;0.00;0.00;;;;;;;;;;5075595;28;20055;-83
2022/11/08 09:23:12;;;;;;;0.00;0.00;;;;;;;;;;5075369;28;20048;-83
2022/11/08 09:25:37;;;;;;;0.00;0.00;;;;;;;;;;5093400;28;20207;-83
2022/11/08 09:28:04;;;;;;;0.00;0.00;;;;;;;;;;5074968;28;20188;-83
2022/11/08 09:30:30;;;;;;;0.00;0.00;;;;;;;;;;5075087;28;20043;-83
2022/11/08 09:32:56;;;;;;;0.00;0.00;;;;;;;;;;5093172;28;20040;-83
2022/11/08 09:35:22;;;;;;;0.00;0.00;;;;;;;;;;5075037;28;20069;-83
2022/11/08 09:37:48;;;;;;;0.00;0.00;;;;;;;;;;5074671;28;20059;-83
2022/11/08 09:40:16;;;;;;;0.00;0.00;;;;;;;;;;5075272;28;20055;-83
2022/11/08 09:42:49;;;;;;;0.00;0.00;;;;;;;;;;5074921;28;20479;-81
2022/11/08 09:45:15;;;;;;;0.00;0.00;;;;;;;;;;5075139;28;20040;-84
2022/11/08 09:47:43;;;;;;;0.00;0.00;;;;;;;;;;5074808;28;20068;-84
2022/11/08 09:50:31;;;;;;;0.00;0.00;;;;;;;;;;5074943;28;20568;-84
2022/11/08 09:53:17;;;;;;;0.00;0.00;;;;;;;;;;5074669;28;20043;-84
2022/11/08 09:55:46;;;;;;;0.00;0.00;;;;;;;;;;5074729;28;20047;-84
2022/11/08 09:58:15;;;;;;;0.00;0.00;;;;;;;;;;5074709;28;20036;-83
2022/11/08 10:00:41;;;;;;;0.00;0.00;;;;;;;;;;5074853;28;20047;-84
2022/11/08 10:03:13;;;;;;;0.00;0.00;;;;;;;;;;5074501;28;20096;-83
2022/11/08 10:05:40;;;;;;;0.00;0.00;;;;;;;;;;5074851;28;20067;-83
2022/11/08 10:08:16;;;;;;;0.00;0.00;;;;;;;;;;5074419;28;20126;-84
2022/11/08 10:10:54;;;;;;;0.00;0.00;;;;;;;;;;5093046;28;20407;-83
2022/11/08 10:13:38;;;;;;;0.00;0.00;;;;;;;;;;5074504;28;20162;-83
2022/11/08 10:16:23;;;;;;;0.00;0.00;;;;;;;;;;5074550;28;20094;-83
2022/11/08 10:19:14;;;;;;;0.00;0.00;;;;;;;;;;5074566;28;20048;-83
2022/11/08 10:21:43;;;;;;;0.00;0.00;;;;;;;;;;5065026;28;20453;-84
2022/11/08 10:24:16;;;;;;;0.00;0.00;;;;;;;;;;5074388;28;20438;-83
2022/11/08 10:26:46;;;;;;;0.00;0.00;;;;;;;;;;5075597;28;20131;-83
2022/11/08 10:29:22;;;;;;;0.00;0.00;;;;;;;;;;5078613;28;20555;-83
2022/11/08 10:31:52;;;;;;;0.00;0.00;;;;;;;;;;5096482;28;20109;-84
2022/11/08 10:34:24;;;;;;;0.00;0.00;;;;;;;;;;5078252;28;20044;-84
2022/11/08 10:36:53;;;;;;;0.00;0.00;;;;;;;;;;5074824;28;20592;-84
2022/11/08 10:39:25;;;;;;;0.00;0.00;;;;;;;;;;5093743;28;20048;-83
2022/11/08 10:42:09;;;;;;;0.00;0.00;;;;;;;;;;5077913;28;20123;-84
2022/11/08 10:44:36;;;;;;;0.00;0.00;;;;;;;;;;5078066;28;20055;-84
2022/11/08 10:47:04;;;;;;;0.00;0.00;;;;;;;;;;5078252;28;20048;-83
2022/11/08 10:49:34;;;;;;;0.00;0.00;;;;;;;;;;5078353;28;20047;-83
2022/11/08 10:52:01;;;;;;;0.00;0.00;;;;;;;;;;5077621;28;20101;-84
2022/11/08 10:54:45;;;;;;;0.00;0.00;;;;;;;;;;5096345;28;20494;-83
2022/11/08 10:57:12;;;;;;;0.00;0.00;;;;;;;;;;5077683;28;20040;-84
2022/11/08 10:59:39;;;;;;;0.00;0.00;;;;;;;;;;5077694;28;20047;-90
2022/11/08 11:02:25;;;;;;;0.00;0.00;;;;;;;;;;5077499;28;20071;-84
2022/11/08 11:04:52;;;;;;;0.00;0.00;;;;;;;;;;5078055;28;20059;-83
2022/11/08 11:07:35;;;;;;;0.00;0.00;;;;;;;;;;5077495;28;20109;-84
2022/11/08 11:10:21;;;;;;;0.00;0.00;;;;;;;;;;5077565;28;20553;-84
2022/11/08 11:13:04;;;;;;;0.00;0.00;;;;;;;;;;5095659;28;20044;-84
2022/11/08 11:15:34;;;;;;;0.30;0.08;;;;;;;;;;5077406;28;20051;-84
2022/11/08 11:18:01;;;;;;;0.00;0.00;;;;;;;;;;5077317;28;20497;-84
2022/11/08 11:20:27;;;;;;;0.00;0.00;;;;;;;;;;5077508;28;20036;-84
2022/11/08 11:22:53;;;;;;;0.00;0.00;;;;;;;;;;5077173;28;20055;-84
2022/11/08 11:25:21;;;;;;;0.00;0.00;;;;;;;;;;5077332;28;20040;-83
2022/11/08 11:27:55;;;;;;;0.00;0.00;;;;;;;;;;5077260;28;20102;-85
2022/11/08 11:30:34;;;;;;;0.00;0.00;;;;;;;;;;5077453;28;20047;-84
2022/11/08 11:33:26;;;;;;;0.00;0.00;;;;;;;;;;5077211;28;20044;-84
2022/11/08 11:35:55;;;;;;;0.00;0.00;;;;;;;;;;5073414;28;20044;-84
2022/11/08 11:38:29;;;;;;;0.00;0.00;;;;;;;;;;5076178;28;20048;-85
2022/11/08 11:40:59;;;;;;;0.00;0.00;;;;;;;;;;5077044;28;20108;-84
2022/11/08 11:43:24;;;;;;;0.00;0.00;;;;;;;;;;5076796;28;20166;-84
2022/11/08 11:45:59;;;;;;;0.00;0.00;;;;;;;;;;5077062;28;20091;-84
2022/11/08 11:48:25;;;;;;;0.00;0.00;;;;;;;;;;5076600;28;20036;-84
2022/11/08 11:50:51;;;;;;;0.00;0.00;;;;;;;;;;5076759;28;20047;-84
2022/11/08 11:53:25;;;;;;;0.00;0.00;;;;;;;;;;5076636;28;20040;-84
2022/11/08 11:55:57;;;;;;;0.00;0.00;;;;;;;;;;5077087;28;20047;-84
2022/11/08 11:58:30;;;;;;;0.00;0.00;;;;;;;;;;5076526;28;20118;-84
2022/11/08 12:00:59;;;;;;;0.00;0.00;;;;;;;;;;5076627;28;20044;-84
2022/11/08 12:03:50;;;;;;;0.00;0.00;;;;;;;;;;5076277;28;20044;-85
2022/11/08 12:06:38;;;;;;;0.00;0.00;;;;;;;;;;5076530;28;20105;-84
2022/11/08 12:09:10;;;;;;;0.00;0.00;;;;;;;;;;5076379;28;20032;-85
2022/11/08 12:11:53;;;;;;;0.00;0.00;;;;;;;;;;5076448;28;20043;-84
2022/11/08 12:14:22;;;;;;;0.00;0.00;;;;;;;;;;5076539;28;20040;-85
2022/11/08 12:16:51;;;;;;;0.00;0.00;;;;;;;;;;5076446;28;20043;-85
2022/11/08 12:19:20;;;;;;;0.00;0.00;;;;;;;;;;5076304;28;20044;-85
2022/11/08 12:21:46;;;;;;;0.00;0.00;;;;;;;;;;5076081;28;20036;-85
2022/11/08 12:24:22;;;;;;;0.00;0.00;;;;;;;;;;5075944;28;20032;-85
2022/11/08 12:26:56;;;;;;;0.00;0.00;;;;;;;;;;5076195;28;20113;-85
2022/11/08 12:29:24;;;;;;;0.00;0.00;;;;;;;;;;5075805;28;20124;-85
2022/11/08 12:32:13;;;;;;;0.00;0.00;;;;;;;;;;5076393;28;20055;-85
2022/11/08 12:34:45;;;;;;;0.00;0.00;;;;;;;;;;5075649;28;20047;-84
2022/11/08 12:37:25;;;;;;;0.00;0.00;;;;;;;;;;5075880;28;20052;-84
2022/11/08 12:39:54;;;;;;;0.00;0.00;;;;;;;;;;5075569;28;20062;-85
2022/11/08 12:42:51;;;;;;;0.00;0.00;;;;;;;;;;5076077;28;20040;-84
2022/11/08 12:45:49;;;;;;;0.00;0.00;;;;;;;;;;5059143;28;20499;-85
2022/11/08 12:48:36;;;;;;;0.00;0.00;;;;;;;;;;5049210;28;20044;-85
2022/11/08 12:51:05;;;;;;;0.00;0.00;;;;;;;;;;5075639;28;20040;-85
2022/11/08 12:53:57;;;;;;;0.00;0.00;;;;;;;;;;5075593;28;20339;-85
2022/11/08 12:56:34;;;;;;;0.00;0.00;;;;;;;;;;5028906;28;20048;-84
2022/11/08 12:59:02;;;;;;;0.00;0.00;;;;;;;;;;5075715;28;20054;-87
2022/11/08 13:01:28;;;;;;;0.00;0.00;;;;;;;;;;5075430;28;20514;-86
2022/11/08 13:04:00;;;;;;;0.00;0.00;;;;;;;;;;5075437;28;20227;-85
2022/11/08 13:06:26;;;;;;;0.05;0.05;;;;;;;;;;5075558;28;20063;-86
2022/11/08 13:09:04;;;;;;;0.00;0.00;;;;;;;;;;5075364;28;20067;-86
2022/11/08 13:11:41;;;;;;;0.00;0.00;;;;;;;;;;5075627;28;20036;-86
2022/11/08 13:14:15;;;;;;;0.00;0.00;;;;;;;;;;5075082;28;20040;-86
2022/11/08 13:16:42;;;;;;;0.00;0.00;;;;;;;;;;5075357;28;20028;-86
2022/11/08 13:19:26;;;;;;;0.00;0.00;;;;;;;;;;5074961;28;20040;-86
2022/11/08 13:21:52;;;;;;;0.00;0.00;;;;;;;;;;5075529;28;20044;-86
2022/11/08 13:24:18;;;;;;;0.00;0.00;;;;;;;;;;5075475;28;20036;-87
2022/11/08 13:26:44;;;;;;;0.00;0.00;;;;;;;;;;5075241;28;20380;-86
2022/11/08 13:29:15;;;;;;;0.00;0.00;;;;;;;;;;5074910;28;20048;-85
2022/11/08 13:31:48;;;;;;;0.00;0.00;;;;;;;;;;5075279;28;20058;-86
2022/11/08 13:34:33;;;;;;;0.00;0.00;;;;;;;;;;5075098;28;20065;-86
2022/11/08 13:37:13;;;;;;;0.00;0.00;;;;;;;;;;5074895;28;20059;-87
2022/11/08 13:39:46;;;;;;;0.00;0.00;;;;;;;;;;5074264;28;20043;-86
2022/11/08 13:42:15;;;;;;;0.00;0.00;;;;;;;;;;5075141;28;20085;-86
2022/11/08 13:44:53;;;;;;;0.00;0.00;;;;;;;;;;5093050;28;20047;-86
2022/11/08 13:47:31;;;;;;;0.00;0.00;;;;;;;;;;5075223;28;20048;-87
2022/11/08 13:50:16;;;;;;;0.00;0.00;;;;;;;;;;5074667;28;20036;-86
2022/11/08 13:52:44;;;;;;;0.00;0.00;;;;;;;;;;5074790;28;20078;-87
2022/11/08 13:55:29;;;;;;;0.00;0.00;;;;;;;;;;5074668;28;20048;-86
2022/11/08 13:58:02;;;;;;;0.00;0.00;;;;;;;;;;5074862;28;20066;-86
2022/11/08 14:00:34;;;;;;;0.00;0.00;;;;;;;;;;5075705;28;20046;-86
2022/11/08 14:03:00;;;;;;;0.00;0.00;;;;;;;;;;5078716;28;20047;-85
2022/11/08 14:05:27;;;;;;;0.00;0.00;;;;;;;;;;5078751;28;20032;-86
2022/11/08 14:07:57;;;;;;;0.00;0.00;;;;;;;;;;5078867;28;20047;-86
2022/11/08 14:10:30;;;;;;;0.00;0.00;;;;;;;;;;5078811;28;20118;-86
2022/11/08 14:13:05;;;;;;;0.00;0.00;;;;;;;;;;5078825;28;20072;-85
2022/11/08 14:15:35;;;;;;;0.00;0.00;;;;;;;;;;5078452;28;20043;-86
2022/11/08 14:18:04;;;;;;;0.00;0.00;;;;;;;;;;5079361;28;20107;-87
2022/11/08 14:20:38;;;;;;;0.00;0.00;;;;;;;;;;5078528;28;20046;-86
2022/11/08 14:23:16;;;;;;;0.00;0.00;;;;;;;;;;5078302;28;20044;-86
2022/11/08 14:25:45;;;;;;;0.00;0.00;;;;;;;;;;5078242;28;20115;-86
2022/11/08 14:28:22;;;;;;;0.00;0.00;;;;;;;;;;5078425;28;20128;-85
2022/11/08 14:30:49;;;;;;;0.00;0.00;;;;;;;;;;5078288;28;20032;-86
2022/11/08 14:33:17;;;;;;;0.00;0.00;;;;;;;;;;5078375;28;20074;-86
2022/11/08 14:35:51;;;;;;;0.00;0.00;;;;;;;;;;5077990;28;20517;-85
2022/11/08 14:38:17;;;;;;;0.00;0.00;;;;;;;;;;5096350;28;20048;-86
2022/11/08 14:40:47;;;;;;;0.00;0.00;;;;;;;;;;5078230;28;20583;-84
2022/11/08 14:43:13;;;;;;;0.00;0.00;;;;;;;;;;5078007;28;20048;-85
2022/11/08 14:45:40;;;;;;;0.00;0.00;;;;;;;;;;5078142;28;20044;-85
2022/11/08 14:48:06;;;;;;;0.00;0.00;;;;;;;;;;5078098;28;20051;-85
2022/11/08 14:50:33;;;;;;;0.00;0.00;;;;;;;;;;5077825;28;20039;-84
2022/11/08 14:53:18;;;;;;;0.00;0.00;;;;;;;;;;5077811;28;20036;-85
2022/11/08 14:55:44;;;;;;;0.00;0.00;;;;;;;;;;5077780;28;20100;-85
2022/11/08 14:58:14;;;;;;;0.00;0.00;;;;;;;;;;5077898;28;20040;-84
2022/11/08 15:00:45;;;;;;;0.00;0.00;;;;;;;;;;5078027;28;20051;-85
2022/11/08 15:03:15;;;;;;;0.00;0.00;;;;;;;;;;5077730;28;20040;-84
2022/11/08 15:05:53;;;;;;;0.00;0.00;;;;;;;;;;5077784;28;20451;-85
2022/11/08 15:08:22;;;;;;;0.00;0.00;;;;;;;;;;5077613;28;20120;-84
2022/11/08 15:10:54;;;;;;;0.00;0.00;;;;;;;;;;5077567;28;20497;-84
2022/11/08 15:13:20;;;;;;;0.00;0.00;;;;;;;;;;5076790;28;20040;-84
2022/11/08 15:15:51;;;;;;;0.00;0.00;;;;;;;;;;5077296;28;20461;-84